Time;durP1;ratioP1;P1;durP2;ratioP2;P2;SDS_P1;SDS_P2;PMS_P1;PMS_P2;Temp;Humidity;BMP_temperature;BMP_pressure;BME280_temperature;BME280_humidity;BME280_pressure;Samples;Min_cycle;Max_cycle;Signal;HPM_P1;HPM_P2
2023/06/04 00:01:45;;;;;;;5.72;4.32;;;;;;;;;;5033556;28;20559;-71
2023/06/04 00:04:11;;;;;;;7.22;4.55;;;;;;;;;;5037956;28;20037;-73
2023/06/04 00:06:38;;;;;;;8.30;4.40;;;;;;;;;;5035408;28;20108;-74
2023/06/04 00:09:04;;;;;;;4.60;4.20;;;;;;;;;;5034939;28;20042;-73
2023/06/04 00:11:32;;;;;;;3.85;3.65;;;;;;;;;;5033121;28;20048;-73
2023/06/04 00:13:58;;;;;;;5.38;4.10;;;;;;;;;;5032276;28;20029;-73
2023/06/04 00:16:25;;;;;;;4.43;4.07;;;;;;;;;;5032485;28;20053;-73
2023/06/04 00:18:51;;;;;;;5.95;4.10;;;;;;;;;;5032426;28;20044;-72
2023/06/04 00:21:17;;;;;;;7.72;4.25;;;;;;;;;;5032943;28;20418;-73
2023/06/04 00:23:43;;;;;;;6.47;4.30;;;;;;;;;;5032326;28;20081;-75
2023/06/04 00:26:09;;;;;;;8.30;4.43;;;;;;;;;;5013380;28;20473;-73
2023/06/04 00:28:35;;;;;;;6.80;4.93;;;;;;;;;;5032722;28;20061;-72
2023/06/04 00:31:04;;;;;;;8.07;4.38;;;;;;;;;;5032580;28;20037;-73
2023/06/04 00:33:30;;;;;;;4.72;4.32;;;;;;;;;;5031890;28;20125;-72
2023/06/04 00:35:56;;;;;;;5.10;4.35;;;;;;;;;;5032875;28;20056;-73
2023/06/04 00:38:22;;;;;;;4.40;4.00;;;;;;;;;;5014837;28;20413;-74
2023/06/04 00:40:48;;;;;;;10.65;4.30;;;;;;;;;;5015391;28;20041;-74
2023/06/04 00:43:14;;;;;;;6.40;4.05;;;;;;;;;;5032817;28;20489;-73
2023/06/04 00:45:41;;;;;;;4.63;3.92;;;;;;;;;;5000249;28;20183;-74
2023/06/04 00:48:07;;;;;;;4.15;3.75;;;;;;;;;;4999878;28;20394;-73
2023/06/04 00:50:35;;;;;;;5.15;3.90;;;;;;;;;;5016626;28;20115;-74
2023/06/04 00:53:01;;;;;;;4.50;3.85;;;;;;;;;;5034364;28;20045;-74
2023/06/04 00:55:28;;;;;;;5.40;4.05;;;;;;;;;;5035421;28;20123;-73
2023/06/04 00:57:54;;;;;;;3.97;3.67;;;;;;;;;;5032749;28;20429;-72
2023/06/04 01:00:20;;;;;;;7.32;3.75;;;;;;;;;;5017545;28;20484;-74
2023/06/04 01:02:50;;;;;;;6.63;3.90;;;;;;;;;;5018146;28;20041;-74
2023/06/04 01:05:18;;;;;;;4.72;4.05;;;;;;;;;;5001345;28;20037;-74
2023/06/04 01:07:46;;;;;;;4.15;3.75;;;;;;;;;;5001750;28;20041;-73
2023/06/04 01:10:13;;;;;;;5.78;3.42;;;;;;;;;;5034847;28;20051;-74
2023/06/04 01:12:39;;;;;;;4.85;3.42;;;;;;;;;;5034366;28;20133;-73
2023/06/04 01:15:06;;;;;;;5.03;3.90;;;;;;;;;;5009827;28;20057;-73
2023/06/04 01:17:37;;;;;;;7.68;3.75;;;;;;;;;;5012167;28;20077;-73
2023/06/04 01:20:04;;;;;;;9.00;3.90;;;;;;;;;;4978603;28;20045;-72
2023/06/04 01:23:02;;;;;;;3.92;3.60;;;;;;;;;;5012508;28;20111;-73
2023/06/04 01:25:33;;;;;;;5.72;3.30;;;;;;;;;;4994445;28;20049;-73
2023/06/04 01:28:00;;;;;;;4.13;2.90;;;;;;;;;;5012008;28;20133;-73
2023/06/04 01:30:27;;;;;;;5.00;3.10;;;;;;;;;;4993917;28;20037;-73
2023/06/04 01:32:53;;;;;;;2.80;2.60;;;;;;;;;;4978973;28;20140;-73
2023/06/04 01:35:20;;;;;;;3.42;3.00;;;;;;;;;;4977541;28;20406;-72
2023/06/04 01:37:47;;;;;;;3.67;3.00;;;;;;;;;;5010908;28;20038;-73
2023/06/04 01:40:14;;;;;;;3.72;3.08;;;;;;;;;;5011148;28;20065;-72
2023/06/04 01:42:40;;;;;;;3.78;3.25;;;;;;;;;;5011159;28;20037;-73
2023/06/04 01:45:07;;;;;;;3.33;3.13;;;;;;;;;;4977330;28;20433;-73
2023/06/04 01:47:33;;;;;;;3.42;3.08;;;;;;;;;;5011364;28;20046;-73
2023/06/04 01:49:59;;;;;;;3.92;2.97;;;;;;;;;;4996079;28;20048;-74
2023/06/04 01:52:26;;;;;;;3.28;2.97;;;;;;;;;;4993764;28;20132;-73
2023/06/04 01:54:52;;;;;;;5.68;3.20;;;;;;;;;;5010855;28;20052;-73
2023/06/04 01:57:20;;;;;;;5.00;3.13;;;;;;;;;;4976736;28;20137;-72
2023/06/04 01:59:46;;;;;;;3.17;2.90;;;;;;;;;;4976848;28;20518;-73
2023/06/04 02:02:12;;;;;;;3.33;3.08;;;;;;;;;;5009602;28;20061;-74
2023/06/04 02:04:41;;;;;;;3.38;3.08;;;;;;;;;;5010605;28;20064;-73
2023/06/04 02:07:08;;;;;;;3.10;2.88;;;;;;;;;;4993077;28;20045;-73
2023/06/04 02:09:35;;;;;;;3.47;2.80;;;;;;;;;;4976736;28;20045;-73
2023/06/04 02:12:01;;;;;;;3.65;2.80;;;;;;;;;;4993226;28;20050;-74
2023/06/04 02:14:27;;;;;;;3.53;2.63;;;;;;;;;;5011007;28;20042;-72
2023/06/04 02:16:57;;;;;;;4.30;2.88;;;;;;;;;;5029345;28;20087;-74
2023/06/04 02:19:25;;;;;;;2.70;2.50;;;;;;;;;;5029895;28;20034;-73
2023/06/04 02:21:52;;;;;;;3.08;2.80;;;;;;;;;;5030330;28;20053;-73
2023/06/04 02:24:17;;;;;;;2.88;2.67;;;;;;;;;;5029923;28;20517;-74
2023/06/04 02:26:44;;;;;;;2.85;2.65;;;;;;;;;;5012467;28;20037;-73
2023/06/04 02:29:10;;;;;;;7.68;2.30;;;;;;;;;;5030029;28;20476;-73
2023/06/04 02:31:36;;;;;;;2.90;2.70;;;;;;;;;;5012281;28;20041;-73
2023/06/04 02:34:02;;;;;;;2.70;2.50;;;;;;;;;;5012471;28;20132;-71
2023/06/04 02:36:28;;;;;;;3.08;2.60;;;;;;;;;;5029715;28;20061;-73
2023/06/04 02:38:55;;;;;;;2.50;2.30;;;;;;;;;;5030168;28;20133;-72
2023/06/04 02:41:22;;;;;;;3.22;2.60;;;;;;;;;;5029908;28;20061;-72
2023/06/04 02:43:48;;;;;;;3.15;2.42;;;;;;;;;;5030067;28;20048;-72
2023/06/04 02:46:14;;;;;;;3.08;2.35;;;;;;;;;;5029795;28;20091;-72
2023/06/04 02:48:40;;;;;;;3.00;2.80;;;;;;;;;;5012430;28;20053;-72
2023/06/04 02:51:10;;;;;;;4.57;2.35;;;;;;;;;;5033384;28;20122;-70
2023/06/04 02:53:36;;;;;;;2.35;2.22;;;;;;;;;;5016270;28;20429;-72
2023/06/04 02:56:02;;;;;;;5.13;3.85;;;;;;;;;;5033896;28;20057;-72
2023/06/04 02:58:28;;;;;;;2.60;2.40;;;;;;;;;;5033455;28;20042;-72
2023/06/04 03:00:55;;;;;;;2.40;2.30;;;;;;;;;;5016346;28;20532;-72
2023/06/04 03:03:22;;;;;;;2.15;2.05;;;;;;;;;;5015739;28;20421;-72
2023/06/04 03:05:48;;;;;;;3.05;1.90;;;;;;;;;;5016141;28;20049;-72
2023/06/04 03:08:13;;;;;;;1.40;1.30;;;;;;;;;;5033445;28;20033;-71
2023/06/04 03:10:40;;;;;;;1.20;1.20;;;;;;;;;;5033766;28;20033;-73
2023/06/04 03:13:06;;;;;;;2.20;2.10;;;;;;;;;;5033617;28;20136;-71
2023/06/04 03:15:31;;;;;;;4.72;2.05;;;;;;;;;;5033070;28;20136;-72
2023/06/04 03:17:58;;;;;;;4.07;1.80;;;;;;;;;;5033379;28;20041;-72
2023/06/04 03:20:24;;;;;;;4.57;2.03;;;;;;;;;;5015508;28;20042;-71
2023/06/04 03:22:50;;;;;;;6.50;2.00;;;;;;;;;;5033395;28;20055;-72
2023/06/04 03:25:16;;;;;;;2.30;2.20;;;;;;;;;;5033042;28;20452;-71
2023/06/04 03:27:42;;;;;;;1.45;1.45;;;;;;;;;;5033387;28;20045;-72
2023/06/04 03:30:08;;;;;;;1.80;1.70;;;;;;;;;;5015639;28;20128;-72
2023/06/04 03:33:01;;;;;;;1.85;1.75;;;;;;;;;;5030416;28;20073;-72
2023/06/04 03:35:26;;;;;;;4.15;1.88;;;;;;;;;;5015102;28;20080;-73
2023/06/04 03:37:52;;;;;;;3.97;2.20;;;;;;;;;;5033221;28;20492;-72
2023/06/04 03:40:19;;;;;;;1.58;1.48;;;;;;;;;;5015287;28;20129;-73
2023/06/04 03:42:46;;;;;;;1.67;1.58;;;;;;;;;;5032666;28;20509;-70
2023/06/04 03:45:14;;;;;;;1.80;1.70;;;;;;;;;;4998762;28;20430;-71
2023/06/04 03:47:40;;;;;;;1.75;1.65;;;;;;;;;;4999026;28;20494;-72
2023/06/04 03:50:07;;;;;;;2.03;1.90;;;;;;;;;;5015360;28;20037;-71
2023/06/04 03:52:33;;;;;;;1.95;1.83;;;;;;;;;;5033578;28;20517;-72
2023/06/04 03:55:01;;;;;;;1.70;1.70;;;;;;;;;;5000321;28;20045;-72
2023/06/04 03:57:30;;;;;;;1.85;1.63;;;;;;;;;;5016179;28;20083;-71
2023/06/04 03:59:57;;;;;;;1.80;1.70;;;;;;;;;;5017686;28;20053;-72
2023/06/04 04:02:23;;;;;;;2.88;1.80;;;;;;;;;;5003179;28;20042;-71
2023/06/04 04:04:49;;;;;;;2.40;1.95;;;;;;;;;;5019249;28;20120;-72
2023/06/04 04:07:15;;;;;;;2.30;1.80;;;;;;;;;;5033264;28;20053;-71
2023/06/04 04:09:41;;;;;;;1.67;1.38;;;;;;;;;;5033001;28;20045;-72
2023/06/04 04:12:07;;;;;;;2.70;1.52;;;;;;;;;;5015311;28;20049;-72
2023/06/04 04:14:34;;;;;;;1.35;1.25;;;;;;;;;;5014682;28;20045;-72
2023/06/04 04:17:02;;;;;;;1.60;1.60;;;;;;;;;;5015034;28;20049;-73
2023/06/04 04:19:28;;;;;;;1.50;1.50;;;;;;;;;;5014555;28;20107;-73
2023/06/04 04:21:54;;;;;;;1.70;1.60;;;;;;;;;;5032709;28;20053;-71
2023/06/04 04:24:27;;;;;;;1.63;1.63;;;;;;;;;;5014397;28;20512;-72
2023/06/04 04:26:58;;;;;;;1.55;1.40;;;;;;;;;;5014535;28;20045;-72
2023/06/04 04:29:27;;;;;;;1.35;1.35;;;;;;;;;;4997413;28;20047;-72
2023/06/04 04:32:00;;;;;;;1.70;1.60;;;;;;;;;;5014405;28;20060;-72
2023/06/04 04:34:26;;;;;;;1.20;1.20;;;;;;;;;;5014821;28;20042;-73
2023/06/04 04:36:54;;;;;;;3.00;1.63;;;;;;;;;;4998424;28;20072;-71
2023/06/04 04:39:24;;;;;;;1.70;1.60;;;;;;;;;;5014132;28;20038;-72
2023/06/04 04:41:50;;;;;;;1.40;1.40;;;;;;;;;;5014200;28;20046;-71
2023/06/04 04:44:17;;;;;;;1.52;1.50;;;;;;;;;;5014033;28;20576;-71
2023/06/04 04:46:43;;;;;;;1.60;1.50;;;;;;;;;;5031988;28;20083;-72
2023/06/04 04:49:10;;;;;;;1.90;1.80;;;;;;;;;;5031949;28;20065;-72
2023/06/04 04:51:36;;;;;;;3.17;1.90;;;;;;;;;;5030476;28;20049;-72
2023/06/04 04:54:03;;;;;;;2.22;2.03;;;;;;;;;;5013953;28;20033;-72
2023/06/04 04:56:33;;;;;;;1.70;1.60;;;;;;;;;;4997383;28;20053;-71
2023/06/04 04:58:58;;;;;;;2.10;2.00;;;;;;;;;;5013995;28;20563;-72
2023/06/04 05:01:25;;;;;;;1.67;1.58;;;;;;;;;;5014173;28;20140;-72
2023/06/04 05:03:52;;;;;;;1.83;1.73;;;;;;;;;;5014037;28;20030;-72
2023/06/04 05:06:18;;;;;;;1.85;1.70;;;;;;;;;;5013692;28;20186;-72
2023/06/04 05:08:45;;;;;;;1.88;1.70;;;;;;;;;;4997031;28;20048;-71
2023/06/04 05:11:13;;;;;;;2.97;1.63;;;;;;;;;;5014086;28;20045;-72
2023/06/04 05:13:43;;;;;;;2.15;1.75;;;;;;;;;;4996739;28;20052;-71
2023/06/04 05:16:12;;;;;;;4.40;4.03;;;;;;;;;;5013568;28;20517;-71
2023/06/04 05:18:44;;;;;;;1.70;1.65;;;;;;;;;;5013420;28;20200;-72
2023/06/04 05:21:14;;;;;;;1.90;1.80;;;;;;;;;;4997244;28;20041;-72
2023/06/04 05:23:48;;;;;;;3.85;2.50;;;;;;;;;;5013466;28;20545;-71
2023/06/04 05:26:15;;;;;;;1.77;1.67;;;;;;;;;;5013614;28;20072;-71
2023/06/04 05:28:43;;;;;;;1.25;1.25;;;;;;;;;;5013393;28;20065;-73
2023/06/04 05:31:13;;;;;;;1.55;1.45;;;;;;;;;;5013729;28;20041;-73
2023/06/04 05:33:40;;;;;;;1.52;1.40;;;;;;;;;;5013343;28;20041;-72
2023/06/04 05:36:10;;;;;;;1.98;1.90;;;;;;;;;;5013807;28;20056;-72
2023/06/04 05:38:42;;;;;;;2.55;1.90;;;;;;;;;;5013295;28;20107;-72
2023/06/04 05:41:11;;;;;;;2.10;2.00;;;;;;;;;;5013279;28;20454;-72
2023/06/04 05:43:39;;;;;;;2.38;1.58;;;;;;;;;;4996401;28;20521;-72
2023/06/04 05:46:07;;;;;;;1.33;1.23;;;;;;;;;;5030781;28;20034;-72
2023/06/04 05:48:34;;;;;;;1.40;1.40;;;;;;;;;;5012650;28;20053;-73
2023/06/04 05:51:00;;;;;;;2.10;1.48;;;;;;;;;;5030676;28;20045;-72
2023/06/04 05:53:26;;;;;;;3.75;1.52;;;;;;;;;;5012777;28;20132;-72
2023/06/04 05:55:53;;;;;;;1.90;1.33;;;;;;;;;;5012968;28;20053;-73
2023/06/04 05:58:19;;;;;;;4.82;1.38;;;;;;;;;;5030464;28;20090;-73
2023/06/04 06:00:45;;;;;;;1.40;1.10;;;;;;;;;;5030476;28;20136;-73
2023/06/04 06:03:11;;;;;;;1.65;1.40;;;;;;;;;;4996815;28;20042;-73
2023/06/04 06:05:45;;;;;;;1.00;1.00;;;;;;;;;;5012614;28;20057;-73
2023/06/04 06:08:11;;;;;;;1.40;1.27;;;;;;;;;;5030436;28;20103;-73
2023/06/04 06:10:37;;;;;;;2.35;1.60;;;;;;;;;;5012459;28;20048;-74
2023/06/04 06:13:04;;;;;;;4.20;2.58;;;;;;;;;;5030386;28;20037;-75
2023/06/04 06:15:29;;;;;;;1.35;1.25;;;;;;;;;;4995786;28;20057;-74
2023/06/04 06:17:56;;;;;;;1.42;1.42;;;;;;;;;;5012711;28;20092;-74
2023/06/04 06:20:22;;;;;;;2.00;1.60;;;;;;;;;;5012351;28;20037;-73
2023/06/04 06:22:48;;;;;;;1.95;1.42;;;;;;;;;;5030336;28;20041;-74
2023/06/04 06:25:16;;;;;;;1.40;1.30;;;;;;;;;;5012371;28;20073;-74
2023/06/04 06:27:52;;;;;;;1.33;1.33;;;;;;;;;;5012609;28;20219;-74
2023/06/04 06:30:21;;;;;;;1.13;1.13;;;;;;;;;;5012210;28;20053;-73
2023/06/04 06:32:48;;;;;;;1.63;1.13;;;;;;;;;;5030144;28;20053;-74
2023/06/04 06:35:14;;;;;;;1.33;1.33;;;;;;;;;;5030179;28;20516;-74
2023/06/04 06:37:41;;;;;;;1.40;1.30;;;;;;;;;;5012148;28;20046;-74
2023/06/04 06:40:08;;;;;;;1.48;1.38;;;;;;;;;;5030009;28;20136;-74
2023/06/04 06:42:34;;;;;;;1.30;1.30;;;;;;;;;;5029697;28;20077;-74
2023/06/04 06:45:01;;;;;;;3.17;1.42;;;;;;;;;;5030090;28;20045;-73
2023/06/04 06:47:27;;;;;;;3.83;1.30;;;;;;;;;;5012130;28;20088;-74
2023/06/04 06:49:54;;;;;;;0.65;0.65;;;;;;;;;;5030049;28;20530;-74
2023/06/04 06:52:20;;;;;;;1.73;1.63;;;;;;;;;;5030091;28;20133;-74
2023/06/04 06:54:46;;;;;;;1.65;1.40;;;;;;;;;;5029503;28;20050;-74
2023/06/04 06:57:12;;;;;;;2.00;1.90;;;;;;;;;;5030016;28;20097;-74
2023/06/04 06:59:38;;;;;;;1.60;1.50;;;;;;;;;;5029523;28;20077;-74
2023/06/04 07:02:05;;;;;;;1.00;1.00;;;;;;;;;;5029867;28;20072;-74
2023/06/04 07:04:30;;;;;;;3.75;1.30;;;;;;;;;;5029420;28;20457;-73
2023/06/04 07:06:57;;;;;;;1.38;1.27;;;;;;;;;;5029899;28;20041;-74
2023/06/04 07:09:23;;;;;;;1.10;1.10;;;;;;;;;;5029371;28;20128;-75
2023/06/04 07:11:49;;;;;;;1.10;1.10;;;;;;;;;;5030335;28;20053;-74
2023/06/04 07:14:15;;;;;;;1.33;1.27;;;;;;;;;;5029930;28;20067;-74
2023/06/04 07:16:42;;;;;;;1.20;1.20;;;;;;;;;;5029636;28;20065;-75
2023/06/04 07:19:07;;;;;;;2.42;1.50;;;;;;;;;;5029644;28;20042;-74
2023/06/04 07:21:33;;;;;;;1.75;1.65;;;;;;;;;;5011764;28;20611;-74
2023/06/04 07:24:00;;;;;;;1.60;1.50;;;;;;;;;;5011775;28;20395;-74
2023/06/04 07:26:30;;;;;;;1.00;1.00;;;;;;;;;;5001446;28;20413;-74
2023/06/04 07:28:57;;;;;;;1.52;1.50;;;;;;;;;;5030495;28;20048;-74
2023/06/04 07:31:23;;;;;;;1.70;1.60;;;;;;;;;;5012237;28;20140;-75
2023/06/04 07:33:48;;;;;;;1.60;1.50;;;;;;;;;;5011995;28;20120;-74
2023/06/04 07:36:15;;;;;;;3.65;1.60;;;;;;;;;;5013861;28;20063;-73
2023/06/04 07:38:41;;;;;;;3.42;1.63;;;;;;;;;;5015940;28;20045;-75
2023/06/04 07:41:07;;;;;;;2.67;1.30;;;;;;;;;;5019951;28;20048;-75
2023/06/04 07:43:33;;;;;;;1.23;1.23;;;;;;;;;;5040397;28;20095;-74
2023/06/04 07:45:59;;;;;;;11.38;1.40;;;;;;;;;;5037376;28;20045;-74
2023/06/04 07:48:30;;;;;;;2.08;1.33;;;;;;;;;;5032978;28;20045;-75
2023/06/04 07:50:57;;;;;;;1.77;1.20;;;;;;;;;;5032982;28;20088;-74
2023/06/04 07:53:23;;;;;;;2.90;1.42;;;;;;;;;;5033008;28;20049;-75
2023/06/04 07:55:49;;;;;;;1.45;1.45;;;;;;;;;;5032488;28;20065;-75
2023/06/04 07:58:15;;;;;;;1.45;1.35;;;;;;;;;;4998668;28;20075;-74
2023/06/04 08:00:41;;;;;;;1.20;1.20;;;;;;;;;;5032367;28;20069;-75
2023/06/04 08:03:07;;;;;;;8.85;2.33;;;;;;;;;;5032819;28;20046;-75
2023/06/04 08:05:34;;;;;;;1.50;1.42;;;;;;;;;;5032528;28;20081;-74
2023/06/04 08:08:01;;;;;;;4.30;1.40;;;;;;;;;;5014915;28;20045;-74
2023/06/04 08:10:27;;;;;;;5.65;1.15;;;;;;;;;;5032445;28;20080;-74
2023/06/04 08:12:53;;;;;;;2.05;1.30;;;;;;;;;;5031407;28;20042;-75
2023/06/04 08:15:19;;;;;;;0.90;0.90;;;;;;;;;;4998212;28;20050;-74
2023/06/04 08:18:05;;;;;;;5.63;1.40;;;;;;;;;;5017902;28;20517;-74
2023/06/04 08:20:38;;;;;;;1.15;1.15;;;;;;;;;;5032325;28;20049;-74
2023/06/04 08:23:24;;;;;;;1.33;1.30;;;;;;;;;;5032502;28;20191;-74
2023/06/04 08:26:10;;;;;;;1.85;1.77;;;;;;;;;;5032336;28;20056;-74
2023/06/04 08:28:48;;;;;;;1.50;1.40;;;;;;;;;;5032230;28;20048;-74
2023/06/04 08:31:24;;;;;;;1.55;1.55;;;;;;;;;;5032503;28;20049;-74
2023/06/04 08:34:05;;;;;;;;;;;;;;;;;;5003096;28;20049;-74
2023/06/04 08:36:35;;;;;;;4.68;1.58;;;;;;;;;;5031923;28;20385;-74
2023/06/04 08:39:01;;;;;;;1.50;1.40;;;;;;;;;;5032219;28;20041;-73
2023/06/04 08:41:43;;;;;;;1.27;1.27;;;;;;;;;;5032062;28;20096;-74
2023/06/04 08:44:09;;;;;;;1.35;1.33;;;;;;;;;;5032079;28;20054;-74
2023/06/04 08:46:39;;;;;;;2.30;1.20;;;;;;;;;;5031182;28;20049;-74
2023/06/04 08:49:06;;;;;;;0.90;0.90;;;;;;;;;;5031849;28;20524;-74
2023/06/04 08:51:33;;;;;;;0.88;0.88;;;;;;;;;;5031768;28;20041;-74
2023/06/04 08:53:59;;;;;;;1.70;1.60;;;;;;;;;;5031980;28;20057;-74
2023/06/04 08:56:28;;;;;;;1.60;1.50;;;;;;;;;;5014237;28;20103;-75
2023/06/04 08:58:56;;;;;;;2.40;1.30;;;;;;;;;;5031704;28;20053;-75
2023/06/04 09:01:23;;;;;;;1.08;1.08;;;;;;;;;;5030608;28;20041;-74
2023/06/04 09:03:49;;;;;;;1.08;0.95;;;;;;;;;;5031744;28;20067;-74
2023/06/04 09:06:15;;;;;;;1.55;1.45;;;;;;;;;;5031948;28;20088;-75
2023/06/04 09:08:41;;;;;;;3.25;1.42;;;;;;;;;;5013975;28;20434;-74
2023/06/04 09:11:08;;;;;;;3.20;1.60;;;;;;;;;;5014127;28;20045;-75
2023/06/04 09:13:34;;;;;;;1.30;1.30;;;;;;;;;;5013811;28;20034;-73
2023/06/04 09:16:03;;;;;;;1.60;1.40;;;;;;;;;;5034421;28;20103;-75
2023/06/04 09:18:29;;;;;;;2.20;1.40;;;;;;;;;;4999636;28;20509;-74
2023/06/04 09:21:02;;;;;;;1.20;1.20;;;;;;;;;;5031383;28;20072;-74
2023/06/04 09:23:28;;;;;;;1.17;1.17;;;;;;;;;;5031495;28;20143;-74
2023/06/04 09:25:54;;;;;;;0.80;0.80;;;;;;;;;;5031488;28;20076;-75
2023/06/04 09:28:20;;;;;;;2.03;1.60;;;;;;;;;;5031478;28;20409;-75
2023/06/04 09:30:52;;;;;;;1.42;1.42;;;;;;;;;;5031039;28;20136;-75
2023/06/04 09:33:19;;;;;;;1.20;1.20;;;;;;;;;;5031658;28;20068;-75
2023/06/04 09:35:55;;;;;;;1.73;1.63;;;;;;;;;;5013138;28;20049;-75
2023/06/04 09:38:22;;;;;;;1.42;1.42;;;;;;;;;;5031106;28;20144;-75
2023/06/04 09:40:49;;;;;;;1.42;1.33;;;;;;;;;;5012925;28;20051;-75
2023/06/04 09:43:22;;;;;;;5.90;1.50;;;;;;;;;;5031043;28;20048;-75
2023/06/04 09:45:48;;;;;;;1.58;1.40;;;;;;;;;;5012970;28;20076;-75
2023/06/04 09:48:23;;;;;;;1.00;1.00;;;;;;;;;;5013479;28;20084;-75
2023/06/04 09:50:49;;;;;;;2.15;1.95;;;;;;;;;;5013736;28;20049;-75
2023/06/04 09:53:15;;;;;;;1.42;1.35;;;;;;;;;;5031203;28;20090;-74
2023/06/04 09:55:41;;;;;;;3.47;1.80;;;;;;;;;;5013069;28;20488;-75
2023/06/04 09:58:08;;;;;;;1.10;1.00;;;;;;;;;;5030658;28;20049;-75
2023/06/04 10:00:34;;;;;;;0.90;0.90;;;;;;;;;;5030401;28;20053;-75
2023/06/04 10:03:01;;;;;;;1.17;1.15;;;;;;;;;;5030880;28;20116;-75
2023/06/04 10:05:27;;;;;;;1.77;1.60;;;;;;;;;;5030532;28;20060;-75
2023/06/04 10:07:53;;;;;;;2.00;1.80;;;;;;;;;;5030245;28;20049;-75
2023/06/04 10:10:20;;;;;;;2.10;2.00;;;;;;;;;;5012787;28;20044;-74
2023/06/04 10:12:50;;;;;;;2.45;1.55;;;;;;;;;;5028931;28;20057;-75
2023/06/04 10:15:16;;;;;;;3.05;1.20;;;;;;;;;;5012387;28;20045;-75
2023/06/04 10:17:42;;;;;;;1.33;1.25;;;;;;;;;;5029850;28;20099;-75
2023/06/04 10:20:08;;;;;;;4.07;1.60;;;;;;;;;;5012615;28;20099;-75
2023/06/04 10:22:35;;;;;;;2.60;1.67;;;;;;;;;;5030041;28;20076;-75
2023/06/04 10:25:01;;;;;;;1.65;1.55;;;;;;;;;;5030124;28;20509;-75
2023/06/04 10:27:32;;;;;;;4.28;1.80;;;;;;;;;;5030152;28;20049;-74
2023/06/04 10:29:58;;;;;;;5.93;2.67;;;;;;;;;;5012135;28;20461;-73
2023/06/04 10:32:28;;;;;;;1.67;1.38;;;;;;;;;;5030403;28;20045;-74
2023/06/04 10:34:53;;;;;;;2.90;1.70;;;;;;;;;;5012556;28;20095;-74
2023/06/04 10:37:23;;;;;;;1.70;1.60;;;;;;;;;;4995959;28;20069;-74
2023/06/04 10:39:52;;;;;;;2.97;1.63;;;;;;;;;;5029986;28;20422;-75
2023/06/04 10:42:18;;;;;;;4.90;1.63;;;;;;;;;;5012401;28;20041;-74
2023/06/04 10:44:48;;;;;;;3.35;1.80;;;;;;;;;;5011968;28;20048;-74
2023/06/04 10:47:26;;;;;;;1.90;1.80;;;;;;;;;;5012416;28;20107;-73
2023/06/04 10:49:53;;;;;;;1.98;1.70;;;;;;;;;;5029828;28;20041;-74
2023/06/04 10:52:19;;;;;;;1.58;1.48;;;;;;;;;;5012267;28;20049;-74
2023/06/04 10:54:46;;;;;;;2.20;2.00;;;;;;;;;;5029492;28;20194;-74
2023/06/04 10:57:12;;;;;;;1.70;1.60;;;;;;;;;;5029997;28;20057;-74
2023/06/04 10:59:38;;;;;;;4.13;1.42;;;;;;;;;;5029577;28;20038;-74
2023/06/04 11:02:08;;;;;;;1.70;1.60;;;;;;;;;;5012324;28;20394;-73
2023/06/04 11:04:33;;;;;;;2.50;1.70;;;;;;;;;;5031072;28;20072;-74
2023/06/04 11:07:03;;;;;;;2.22;1.90;;;;;;;;;;5002364;28;20046;-74
2023/06/04 11:09:29;;;;;;;2.03;1.75;;;;;;;;;;5037470;28;20045;-73
2023/06/04 11:11:58;;;;;;;3.90;1.50;;;;;;;;;;5038877;28;20046;-74
2023/06/04 11:14:24;;;;;;;1.45;1.45;;;;;;;;;;5033815;28;20577;-73
2023/06/04 11:16:50;;;;;;;2.10;2.00;;;;;;;;;;5033407;28;20588;-74
2023/06/04 11:19:16;;;;;;;1.90;1.75;;;;;;;;;;5016133;28;20041;-72
2023/06/04 11:21:42;;;;;;;1.42;1.33;;;;;;;;;;5015737;28;20399;-74
2023/06/04 11:24:08;;;;;;;1.50;1.40;;;;;;;;;;5033695;28;20042;-74
2023/06/04 11:26:34;;;;;;;2.33;1.58;;;;;;;;;;5033504;28;20060;-74
2023/06/04 11:29:01;;;;;;;2.42;1.80;;;;;;;;;;5033232;28;20529;-74
2023/06/04 11:31:27;;;;;;;1.48;1.45;;;;;;;;;;5033371;28;20041;-75
2023/06/04 11:33:53;;;;;;;2.13;2.03;;;;;;;;;;5033283;28;20049;-74
2023/06/04 11:36:25;;;;;;;1.70;1.60;;;;;;;;;;5015745;28;20057;-73
2023/06/04 11:38:56;;;;;;;1.45;1.45;;;;;;;;;;5033318;28;20049;-73
2023/06/04 11:41:22;;;;;;;1.70;1.60;;;;;;;;;;5015936;28;20038;-74
2023/06/04 11:43:48;;;;;;;1.38;1.30;;;;;;;;;;5032361;28;20046;-74
2023/06/04 11:46:14;;;;;;;1.17;1.17;;;;;;;;;;4999308;28;20371;-73
2023/06/04 11:48:40;;;;;;;1.65;1.58;;;;;;;;;;5015803;28;20127;-74
2023/06/04 11:51:08;;;;;;;4.40;2.58;;;;;;;;;;5015296;28;20041;-74
2023/06/04 11:53:34;;;;;;;2.05;1.90;;;;;;;;;;4999436;28;20041;-74
2023/06/04 11:56:01;;;;;;;1.85;1.75;;;;;;;;;;5015239;28;20049;-74
2023/06/04 11:58:27;;;;;;;1.30;1.30;;;;;;;;;;5033053;28;20037;-74
2023/06/04 12:00:54;;;;;;;1.75;1.65;;;;;;;;;;5015014;28;20038;-74
2023/06/04 12:03:30;;;;;;;1.70;1.60;;;;;;;;;;5015523;28;20100;-74
2023/06/04 12:05:56;;;;;;;1.58;1.58;;;;;;;;;;5032480;28;20041;-74
2023/06/04 12:08:23;;;;;;;1.80;1.70;;;;;;;;;;5015105;28;20048;-74
2023/06/04 12:10:49;;;;;;;3.58;1.60;;;;;;;;;;5032336;28;20533;-74
2023/06/04 12:13:15;;;;;;;2.67;1.70;;;;;;;;;;5014940;28;20476;-73
2023/06/04 12:15:41;;;;;;;2.72;1.80;;;;;;;;;;5032244;28;20053;-74
2023/06/04 12:18:09;;;;;;;4.47;1.65;;;;;;;;;;5032703;28;20041;-74
2023/06/04 12:20:39;;;;;;;1.30;1.30;;;;;;;;;;5032644;28;20045;-74
2023/06/04 12:23:06;;;;;;;1.45;1.35;;;;;;;;;;5032209;28;20041;-74
2023/06/04 12:25:32;;;;;;;4.05;1.88;;;;;;;;;;5014824;28;20037;-73
2023/06/04 12:27:58;;;;;;;2.83;1.75;;;;;;;;;;5031066;28;20517;-74
2023/06/04 12:30:45;;;;;;;2.50;1.80;;;;;;;;;;5014552;28;20127;-74
2023/06/04 12:33:11;;;;;;;2.90;1.55;;;;;;;;;;5032532;28;20464;-74
2023/06/04 12:35:37;;;;;;;1.88;1.77;;;;;;;;;;5014485;28;20053;-74
2023/06/04 12:38:04;;;;;;;1.55;1.50;;;;;;;;;;5014370;28;20056;-73
2023/06/04 12:40:30;;;;;;;1.20;1.13;;;;;;;;;;5014413;28;20049;-74
2023/06/04 12:42:56;;;;;;;1.70;1.60;;;;;;;;;;5031737;28;20295;-73
2023/06/04 12:45:22;;;;;;;1.73;1.70;;;;;;;;;;5031973;28;20045;-74
2023/06/04 12:47:48;;;;;;;1.40;1.40;;;;;;;;;;5031575;28;20103;-74
2023/06/04 12:50:14;;;;;;;1.40;1.30;;;;;;;;;;5031785;28;20136;-73
2023/06/04 12:52:40;;;;;;;2.08;1.52;;;;;;;;;;5032004;28;20050;-73
2023/06/04 12:55:07;;;;;;;1.77;1.67;;;;;;;;;;5034077;28;20045;-73
2023/06/04 12:57:33;;;;;;;2.85;1.88;;;;;;;;;;5032381;28;20041;-73
2023/06/04 12:59:59;;;;;;;1.42;1.42;;;;;;;;;;5031616;28;20041;-73
2023/06/04 13:02:25;;;;;;;1.63;1.52;;;;;;;;;;5031859;28;20041;-74
2023/06/04 13:04:55;;;;;;;2.00;1.90;;;;;;;;;;5031519;28;20084;-73
2023/06/04 13:07:21;;;;;;;2.17;1.98;;;;;;;;;;5031633;28;20103;-74
2023/06/04 13:09:47;;;;;;;4.65;2.00;;;;;;;;;;5031345;28;20080;-74
2023/06/04 13:12:13;;;;;;;1.90;1.80;;;;;;;;;;5014013;28;20580;-74
2023/06/04 13:14:39;;;;;;;1.65;1.55;;;;;;;;;;5013576;28;20045;-73
2023/06/04 13:17:05;;;;;;;1.98;1.58;;;;;;;;;;5031415;28;20049;-74
2023/06/04 13:19:32;;;;;;;1.90;1.80;;;;;;;;;;5033548;28;20040;-73
2023/06/04 13:21:58;;;;;;;1.80;1.70;;;;;;;;;;5030925;28;20132;-74
2023/06/04 13:24:25;;;;;;;1.92;1.83;;;;;;;;;;5031344;28;20124;-73
2023/06/04 13:26:51;;;;;;;1.50;1.40;;;;;;;;;;5030997;28;20099;-73
2023/06/04 13:29:22;;;;;;;1.77;1.67;;;;;;;;;;5031334;28;20038;-74
2023/06/04 13:31:48;;;;;;;2.88;2.58;;;;;;;;;;5030934;28;20128;-75
2023/06/04 13:34:14;;;;;;;2.08;1.95;;;;;;;;;;5030585;28;20036;-74
2023/06/04 13:36:40;;;;;;;1.30;1.30;;;;;;;;;;5029742;28;20438;-74
2023/06/04 13:39:06;;;;;;;2.88;1.67;;;;;;;;;;5030831;28;20037;-74
2023/06/04 13:41:33;;;;;;;1.70;1.60;;;;;;;;;;5030793;28;20045;-73
2023/06/04 13:43:59;;;;;;;2.28;2.08;;;;;;;;;;5013207;28;20049;-73
2023/06/04 13:46:25;;;;;;;1.88;1.65;;;;;;;;;;5030806;28;20528;-74
2023/06/04 13:48:52;;;;;;;1.70;1.60;;;;;;;;;;5030667;28;20156;-74
2023/06/04 13:51:18;;;;;;;1.73;1.63;;;;;;;;;;5030582;28;20052;-73
2023/06/04 13:53:45;;;;;;;2.25;1.83;;;;;;;;;;5030897;28;20057;-74
2023/06/04 13:56:11;;;;;;;1.65;1.42;;;;;;;;;;5012862;28;20045;-73
2023/06/04 13:58:38;;;;;;;1.45;1.35;;;;;;;;;;5031083;28;20080;-73
2023/06/04 14:01:04;;;;;;;1.52;1.42;;;;;;;;;;5012898;28;20092;-74
2023/06/04 14:03:30;;;;;;;1.33;1.33;;;;;;;;;;5013657;28;20045;-74
2023/06/04 14:05:56;;;;;;;2.47;1.60;;;;;;;;;;5030193;28;20117;-74
2023/06/04 14:08:23;;;;;;;1.85;1.75;;;;;;;;;;5012746;28;20529;-73
2023/06/04 14:10:51;;;;;;;1.27;1.27;;;;;;;;;;5030109;28;20041;-74
2023/06/04 14:13:18;;;;;;;1.23;1.20;;;;;;;;;;5030673;28;20571;-74
2023/06/04 14:15:44;;;;;;;1.95;1.50;;;;;;;;;;5030228;28;20223;-73
2023/06/04 14:18:10;;;;;;;1.83;1.73;;;;;;;;;;5031265;28;20045;-74
2023/06/04 14:20:36;;;;;;;1.70;1.60;;;;;;;;;;5033459;28;20049;-73
2023/06/04 14:23:02;;;;;;;2.03;1.60;;;;;;;;;;5035193;28;20502;-74
2023/06/04 14:25:28;;;;;;;2.22;2.13;;;;;;;;;;5016517;28;20064;-73
2023/06/04 14:27:55;;;;;;;2.70;1.75;;;;;;;;;;5031470;28;20045;-73
2023/06/04 14:30:21;;;;;;;1.52;1.42;;;;;;;;;;5030457;28;20128;-73
2023/06/04 14:32:47;;;;;;;3.13;1.83;;;;;;;;;;5030370;28;20045;-74
2023/06/04 14:35:13;;;;;;;2.45;1.90;;;;;;;;;;5030019;28;20053;-73
2023/06/04 14:37:40;;;;;;;2.35;2.05;;;;;;;;;;5030122;28;20045;-73
2023/06/04 14:40:06;;;;;;;2.20;2.00;;;;;;;;;;5029859;28;20107;-74
2023/06/04 14:42:32;;;;;;;3.35;2.10;;;;;;;;;;5030888;28;20114;-73
2023/06/04 14:44:58;;;;;;;1.88;1.77;;;;;;;;;;4995214;28;20041;-73